Redwood City, CA (94065)

4:48 PM PDT on September 02, 2014 (GMT -0700)
Redwood Shores | Change Station
CLOSE
Current Station
Personal Weather Station
Location: Redwood City, CA
Elevation: 5 ft
Nearby Weather Stations

Elev 5 ft 37.53 °N, 122.25 °W | Updated 11 days ago

Clear
Clear
72 °F
Feels Like 72 °F
N
14
Wind Variable Wind from WSW
Gusts 14 mph

Today
High -- | Low -- °F
--% Chance of Precip.
Yesterday
High -- | Low -- °F
Precip. -- in
6:40 AM 7:36 PM
First Quarter, 56% visible
Pressure 29.79 in
Visibility 10.0 miles
Clouds Few 1400 ft
Dew Point 59 °F
Humidity 62%
Rainfall 0.00 in
Snow Depth Not available.
UV 6 out of 12
Pollen 7.30 out of 12
Air Quality Not available.
Flu Activity Not available.
METAR KSQL 022247Z 27008KT 10SM FEW014 25/14 A2979

More Conditions Fewer Conditions

Pressure 29.79 in
Visibility 10.0 miles
Clouds Few 1400 ft
Dew Point 59 °F
Humidity 62%
Rainfall 0.00 in
Snow Depth Not available.
UV 6 out of 12
Pollen 7.30 out of 12
Air Quality Not available.
Flu Activity Not available.
METAR KSQL 022247Z 27008KT 10SM FEW014 25/14 A2979

More Conditions Fewer Conditions

10-Day Weather Forecast

Almanac

Astronomy

Sep. 02, 2014 Rise Set
Actual Time 6:40 AM PDT 7:36 PM PDT
Civil Twilight 6:13 AM PDT 8:03 PM PDT
Nautical Twilight 5:41 AM PDT 8:34 PM PDT
Astronomical Twilight 5:08 AM PDT 9:07 PM PDT
Moon 2:21 PM PDT No Moon Set
Length of Visible Light 13h 49m
Length of Day
12h 56m
Tomorrow will be 2m 20s shorter.
First Quarter, 56% of the Moon is Illuminated
Today
First Quarter
Sep 8
Full
Sep 15
Last Quarter
Sep 24
New
Oct 1
First Quarter

Today's Extremes

State Highs State Lows

Community

WunderPhotos

Upload Photos

1,749,799 photos uploaded!

Nearby

Air Quality

  Air Quality AQ Index Pollutant
Yesterday Moderate
PM2.5
Yesterday Good
OZONE
Tuesday Good
OZONE
Wednesday Good
PM2.5
Thursday Good
OZONE
Friday Good
OZONE
Saturday Good
OZONE
Sunday Good
OZONE

Snow Depth

Station Depth Elevation
Leavitt Meadows 1 in 7200 ft
Summit Meadow 0 in 9122 ft
CSS Lab 0 in 6900 ft
Adin Mountain 0 in 6200 ft
Cedar Pass 0 in 7100 ft

Earthquake Activity

City Distance Mag. Time & Date
Cobb, California 92 miles 2.5 12:00 PM PDT
2014-09-02
Yountville, California 57 miles 2.6 1:15 PM PDT
2014-09-01
Gilroy, California 57 miles 3.5 9:10 AM PDT
2014-09-01
Green Valley, California 49 miles 2.5 6:37 AM PDT
2014-08-31
Minimum magnitude displayed is 2.5.

Coastal Water Temperatures

Place Temperature
No Stations Reporting

Nearby Weather Stations